createdAt,value
2018-08-22T00:00:26.649Z,19.40
2018-08-22T00:02:54.936Z,19.40
2018-08-22T00:05:23.216Z,19.40
2018-08-22T00:07:51.496Z,19.30
2018-08-22T00:10:19.800Z,19.30
2018-08-22T00:12:48.100Z,19.20
2018-08-22T00:15:16.429Z,19.20
2018-08-22T00:17:44.654Z,19.20
2018-08-22T00:20:12.924Z,19.20
2018-08-22T00:22:41.203Z,19.20
2018-08-22T00:25:09.465Z,19.20
2018-08-22T00:27:37.744Z,19.20
2018-08-22T00:30:06.412Z,19.20
2018-08-22T00:32:34.727Z,19.00
2018-08-22T00:35:03.064Z,19.00
2018-08-22T00:37:31.344Z,18.90
2018-08-22T00:39:59.627Z,18.80
2018-08-22T00:42:27.892Z,18.70
2018-08-22T00:44:56.165Z,18.70
2018-08-22T00:47:24.444Z,18.70
2018-08-22T00:49:52.725Z,18.70
2018-08-22T00:52:20.981Z,18.70
2018-08-22T00:54:49.252Z,18.70
2018-08-22T00:57:17.726Z,18.70
2018-08-22T00:59:46.016Z,18.70
2018-08-22T01:02:14.316Z,18.70
2018-08-22T01:04:42.611Z,18.60
2018-08-22T01:07:10.897Z,18.50
2018-08-22T01:09:39.165Z,18.50
2018-08-22T01:12:07.436Z,18.40
2018-08-22T01:14:35.714Z,18.40
2018-08-22T01:17:04.021Z,18.50
2018-08-22T01:19:32.301Z,18.50
2018-08-22T01:22:00.572Z,18.50
2018-08-22T01:24:28.865Z,18.30
2018-08-22T01:26:57.149Z,18.20
2018-08-22T01:29:25.424Z,18.30
2018-08-22T01:31:53.704Z,18.40
2018-08-22T01:34:21.981Z,18.20
2018-08-22T01:36:50.281Z,18.10
2018-08-22T01:39:18.568Z,18.10
2018-08-22T01:41:46.850Z,18.10
2018-08-22T01:44:15.133Z,18.10
2018-08-22T01:46:43.424Z,18.00
2018-08-22T01:49:11.699Z,18.00
2018-08-22T01:51:39.968Z,18.00
2018-08-22T01:54:08.242Z,18.00
2018-08-22T01:56:36.526Z,17.90
2018-08-22T01:59:04.809Z,18.80
2018-08-22T02:01:33.082Z,17.90
2018-08-22T02:04:01.361Z,17.90
2018-08-22T02:06:29.701Z,17.90
2018-08-22T02:08:58.012Z,17.90
2018-08-22T02:11:26.276Z,17.90
2018-08-22T02:13:54.556Z,17.90
2018-08-22T02:16:22.849Z,17.80
2018-08-22T02:18:51.145Z,17.80
2018-08-22T02:21:19.465Z,17.80
2018-08-22T02:23:47.754Z,17.70
2018-08-22T02:26:16.036Z,17.60
2018-08-22T02:28:44.325Z,17.60
2018-08-22T02:31:12.620Z,17.50
2018-08-22T02:33:40.940Z,17.50
2018-08-22T02:36:09.180Z,17.60
2018-08-22T02:38:37.473Z,17.60
2018-08-22T02:41:05.825Z,17.50
2018-08-22T02:43:34.125Z,17.40
2018-08-22T02:46:02.412Z,17.30
2018-08-22T02:48:34.805Z,17.20
2018-08-22T02:51:03.073Z,17.20
2018-08-22T02:53:31.332Z,17.10
2018-08-22T02:55:59.608Z,17.10
2018-08-22T02:58:27.894Z,17.00
2018-08-22T03:00:56.176Z,16.90
2018-08-22T03:03:24.488Z,16.80
2018-08-22T03:05:52.778Z,16.80
2018-08-22T03:08:21.060Z,16.80
2018-08-22T03:10:49.341Z,16.80
2018-08-22T03:13:17.654Z,16.80
2018-08-22T03:15:45.949Z,16.80
2018-08-22T03:18:14.248Z,16.90
2018-08-22T03:20:42.530Z,16.90
2018-08-22T03:23:10.813Z,16.80
2018-08-22T03:25:39.082Z,16.80
2018-08-22T03:28:07.388Z,16.80
2018-08-22T03:30:35.687Z,16.80
2018-08-22T03:33:05.075Z,16.80
2018-08-22T03:35:33.566Z,16.80
2018-08-22T03:38:01.854Z,16.90
2018-08-22T03:40:30.168Z,16.90
2018-08-22T03:42:58.596Z,16.80
2018-08-22T03:45:26.868Z,16.80
2018-08-22T03:47:55.136Z,16.80
2018-08-22T03:50:23.406Z,16.70
2018-08-22T03:52:51.677Z,16.70
2018-08-22T03:55:19.949Z,16.60
2018-08-22T03:57:48.237Z,16.60
2018-08-22T04:00:16.528Z,16.50
2018-08-22T04:02:44.813Z,16.50
2018-08-22T04:05:13.102Z,16.50
2018-08-22T04:07:41.393Z,16.50
2018-08-22T04:10:09.677Z,16.50
2018-08-22T04:12:44.383Z,16.40
2018-08-22T04:15:12.701Z,16.50
2018-08-22T04:17:41.408Z,16.50
2018-08-22T04:20:10.005Z,16.50
2018-08-22T04:22:39.505Z,16.50
2018-08-22T04:25:08.213Z,16.50
2018-08-22T04:27:36.527Z,16.50
2018-08-22T04:30:05.260Z,16.50
2018-08-22T04:32:33.520Z,16.50
2018-08-22T04:35:01.817Z,16.50
2018-08-22T04:37:30.119Z,16.50
2018-08-22T04:39:58.370Z,16.50
2018-08-22T04:42:26.727Z,16.50
2018-08-22T04:44:54.993Z,16.60
2018-08-22T04:47:23.287Z,16.60
2018-08-22T04:49:51.557Z,16.60
2018-08-22T04:52:19.844Z,16.60
2018-08-22T04:54:48.118Z,16.70
2018-08-22T04:57:16.405Z,16.70
2018-08-22T04:59:44.704Z,16.70
2018-08-22T05:02:13.029Z,16.80
2018-08-22T05:04:41.319Z,16.90
2018-08-22T05:07:09.606Z,16.90
2018-08-22T05:09:37.897Z,16.90
2018-08-22T05:12:06.191Z,17.00
2018-08-22T05:14:34.498Z,17.00
2018-08-22T05:17:02.777Z,17.10
2018-08-22T05:19:31.077Z,17.20
2018-08-22T05:21:59.372Z,17.30
2018-08-22T05:24:27.663Z,17.40
2018-08-22T05:26:55.946Z,17.50
2018-08-22T05:29:24.217Z,17.50
2018-08-22T05:31:52.552Z,17.60
2018-08-22T05:34:20.833Z,17.70
2018-08-22T05:36:49.183Z,17.90
2018-08-22T05:39:17.449Z,17.90
2018-08-22T05:41:45.753Z,18.00
2018-08-22T05:44:14.053Z,18.00
2018-08-22T05:46:42.358Z,18.10
2018-08-22T05:49:10.737Z,18.30
2018-08-22T05:51:38.953Z,18.40
2018-08-22T05:54:07.364Z,18.50
2018-08-22T05:56:35.624Z,18.60
2018-08-22T05:59:03.914Z,18.70
2018-08-22T06:01:32.219Z,18.80
2018-08-22T06:04:00.492Z,18.90
2018-08-22T06:06:28.752Z,18.90
2018-08-22T06:08:57.027Z,19.00
2018-08-22T06:11:25.332Z,19.20
2018-08-22T06:13:53.615Z,19.40
2018-08-22T06:16:21.885Z,19.50
2018-08-22T06:18:50.156Z,19.70
2018-08-22T06:21:18.468Z,19.80
2018-08-22T06:23:46.717Z,19.90
2018-08-22T06:26:15.081Z,20.00
2018-08-22T06:28:43.744Z,20.10
2018-08-22T06:31:12.007Z,20.20
2018-08-22T06:33:40.273Z,20.40
2018-08-22T06:36:08.540Z,20.60
2018-08-22T06:38:36.809Z,20.90
2018-08-22T06:41:05.243Z,21.00
2018-08-22T06:43:33.509Z,21.10
2018-08-22T06:46:01.776Z,21.10
2018-08-22T06:48:30.065Z,21.20
2018-08-22T06:50:58.337Z,21.30
2018-08-22T06:53:26.626Z,21.40
2018-08-22T06:55:54.892Z,21.50
2018-08-22T06:58:23.150Z,21.60
2018-08-22T07:00:51.432Z,21.70
2018-08-22T07:03:19.697Z,21.80
2018-08-22T07:05:47.997Z,22.00
2018-08-22T07:08:16.306Z,22.10
2018-08-22T07:10:44.561Z,22.30
2018-08-22T07:13:12.852Z,22.40
2018-08-22T07:15:41.125Z,22.50
2018-08-22T07:18:09.464Z,22.70
2018-08-22T07:20:37.729Z,22.80
2018-08-22T07:23:06.045Z,22.90
2018-08-22T07:25:34.325Z,22.90
2018-08-22T07:28:02.708Z,23.00
2018-08-22T07:30:31.004Z,23.20
2018-08-22T07:32:59.289Z,23.30
2018-08-22T07:35:27.569Z,23.30
2018-08-22T07:37:55.853Z,23.40
2018-08-22T07:40:24.124Z,23.60
2018-08-22T07:42:52.400Z,23.70
2018-08-22T07:45:20.698Z,23.70
2018-08-22T07:47:48.992Z,23.70
2018-08-22T07:50:17.282Z,23.70
2018-08-22T07:52:54.069Z,23.80
2018-08-22T07:55:22.401Z,23.90
2018-08-22T07:57:50.668Z,23.90
2018-08-22T08:00:18.945Z,23.90
2018-08-22T08:02:47.217Z,24.10
2018-08-22T08:05:15.513Z,24.10
2018-08-22T08:07:43.793Z,24.30
2018-08-22T08:10:17.164Z,24.40
2018-08-22T08:12:45.513Z,24.50
2018-08-22T08:15:14.714Z,24.60
2018-08-22T08:17:43.081Z,24.70
2018-08-22T08:20:11.352Z,24.80
2018-08-22T08:22:39.637Z,24.90
2018-08-22T08:25:07.918Z,24.90
2018-08-22T08:27:36.202Z,24.90
2018-08-22T08:30:05.593Z,25.10
2018-08-22T08:32:33.880Z,25.00
2018-08-22T08:35:02.165Z,25.10
2018-08-22T08:37:30.496Z,25.30
2018-08-22T08:39:58.744Z,25.40
2018-08-22T08:42:27.020Z,25.50
2018-08-22T08:44:55.321Z,25.50
2018-08-22T08:47:24.029Z,25.60
2018-08-22T08:49:52.406Z,25.70
2018-08-22T08:52:20.695Z,25.80
2018-08-22T08:54:49.001Z,25.80
2018-08-22T08:57:17.336Z,25.70
2018-08-22T08:59:45.545Z,25.80
2018-08-22T09:02:13.835Z,25.90
2018-08-22T09:04:42.118Z,26.00
2018-08-22T09:07:10.389Z,26.00
2018-08-22T09:09:38.727Z,26.10
2018-08-22T09:12:08.213Z,26.20
2018-08-22T09:14:37.616Z,26.30
2018-08-22T09:17:06.465Z,26.40
2018-08-22T09:19:35.000Z,26.40
2018-08-22T09:22:03.573Z,26.50
2018-08-22T09:24:31.912Z,26.60
2018-08-22T09:27:00.135Z,26.60
2018-08-22T09:29:28.437Z,26.70
2018-08-22T09:31:56.669Z,26.70
2018-08-22T09:34:24.973Z,26.80
2018-08-22T09:36:53.210Z,26.80
2018-08-22T09:39:21.549Z,26.90
2018-08-22T09:41:49.795Z,26.90
2018-08-22T09:44:18.094Z,26.90
2018-08-22T09:46:46.347Z,27.00
2018-08-22T09:49:14.613Z,27.10
2018-08-22T09:51:42.878Z,27.30
2018-08-22T09:54:11.153Z,27.40
2018-08-22T09:56:39.421Z,27.40
2018-08-22T09:59:07.693Z,27.50
2018-08-22T10:01:42.775Z,27.60
2018-08-22T10:04:11.097Z,27.60
2018-08-22T10:06:47.192Z,27.60
2018-08-22T10:09:17.824Z,27.70
2018-08-22T10:11:46.162Z,27.70
2018-08-22T10:14:14.521Z,27.70
2018-08-22T10:16:42.807Z,27.80
2018-08-22T10:19:11.100Z,27.80
2018-08-22T10:21:39.370Z,27.90
2018-08-22T10:24:07.653Z,27.90
2018-08-22T10:26:35.954Z,27.90
2018-08-22T10:29:04.209Z,28.00
2018-08-22T10:31:32.477Z,28.00
2018-08-22T10:34:00.749Z,28.00
2018-08-22T10:36:29.041Z,28.00
2018-08-22T10:38:57.312Z,28.00
2018-08-22T10:41:25.604Z,28.00
2018-08-22T10:43:53.876Z,28.00
2018-08-22T10:46:22.140Z,28.00
2018-08-22T10:48:50.545Z,28.20
2018-08-22T10:51:18.826Z,28.20
2018-08-22T10:53:47.116Z,28.20
2018-08-22T10:56:15.357Z,28.40
2018-08-22T10:58:43.713Z,28.40
2018-08-22T11:01:11.988Z,28.40
2018-08-22T11:03:40.262Z,28.40
2018-08-22T11:06:08.610Z,28.50
2018-08-22T11:08:36.897Z,28.50
2018-08-22T11:11:05.210Z,28.60
2018-08-22T11:13:33.520Z,28.70
2018-08-22T11:16:01.852Z,28.70
2018-08-22T11:18:30.092Z,28.70
2018-08-22T11:21:09.658Z,28.70
2018-08-22T11:23:49.189Z,28.70
2018-08-22T11:26:28.901Z,28.70
2018-08-22T11:29:08.415Z,28.80
2018-08-22T11:31:48.084Z,28.90
2018-08-22T11:34:27.654Z,29.10
2018-08-22T11:37:02.884Z,29.20
2018-08-22T11:39:31.200Z,29.20
2018-08-22T11:41:59.496Z,29.30
2018-08-22T11:44:27.786Z,29.40
2018-08-22T11:46:56.042Z,29.50
2018-08-22T11:49:24.317Z,29.60
2018-08-22T11:51:52.602Z,29.40
2018-08-22T11:54:20.956Z,29.40
2018-08-22T11:56:49.248Z,29.40
2018-08-22T11:59:17.865Z,29.40
2018-08-22T12:01:46.142Z,29.20
2018-08-22T12:04:14.431Z,29.40
2018-08-22T12:06:42.703Z,29.20
2018-08-22T12:09:12.401Z,29.20
2018-08-22T12:11:41.293Z,29.30
2018-08-22T12:14:09.930Z,29.40
2018-08-22T12:16:38.344Z,29.50
2018-08-22T12:19:07.049Z,29.50
2018-08-22T12:21:35.329Z,29.30
2018-08-22T12:24:03.896Z,29.30
2018-08-22T12:26:32.188Z,29.20
2018-08-22T12:29:00.476Z,29.30
2018-08-22T12:31:28.936Z,29.30
2018-08-22T12:33:57.525Z,29.40
2018-08-22T12:36:25.807Z,29.50
2018-08-22T12:38:54.103Z,29.60
2018-08-22T12:41:22.402Z,29.50
2018-08-22T12:43:50.668Z,29.40
2018-08-22T12:46:18.951Z,29.40
2018-08-22T12:48:47.229Z,29.40
2018-08-22T12:51:15.497Z,29.50
2018-08-22T12:53:43.781Z,29.50
2018-08-22T12:56:12.065Z,29.50
2018-08-22T12:58:40.337Z,29.60
2018-08-22T13:01:08.871Z,29.50
2018-08-22T13:03:37.185Z,29.60
2018-08-22T13:06:05.752Z,29.40
2018-08-22T13:08:34.028Z,29.70
2018-08-22T13:11:02.351Z,29.80
2018-08-22T13:13:30.860Z,29.90
2018-08-22T13:15:59.251Z,29.90
2018-08-22T13:18:27.560Z,29.70
2018-08-22T13:20:55.896Z,29.40
2018-08-22T13:23:24.167Z,29.40
2018-08-22T13:25:52.432Z,29.50
2018-08-22T13:28:20.736Z,29.60
2018-08-22T13:30:49.023Z,29.70
2018-08-22T13:33:17.321Z,29.70
2018-08-22T13:35:52.256Z,29.80
2018-08-22T13:38:20.530Z,29.90
2018-08-22T13:40:48.791Z,30.10
2018-08-22T13:43:17.094Z,30.10
2018-08-22T13:45:45.376Z,30.10
2018-08-22T13:48:13.657Z,29.80
2018-08-22T13:50:41.979Z,29.80
2018-08-22T13:53:10.237Z,29.70
2018-08-22T13:55:38.521Z,29.90
2018-08-22T13:58:06.948Z,30.00
2018-08-22T14:00:35.279Z,29.90
2018-08-22T14:03:03.585Z,30.00
2018-08-22T14:05:31.846Z,30.00
2018-08-22T14:08:00.132Z,29.70
2018-08-22T14:10:28.403Z,29.80
2018-08-22T14:15:31.341Z,29.90
2018-08-22T14:17:59.636Z,30.00
2018-08-22T14:20:27.916Z,29.90
2018-08-22T14:22:56.221Z,29.90
2018-08-22T14:25:24.515Z,29.90
2018-08-22T14:27:52.792Z,30.00
2018-08-22T14:30:21.070Z,30.10
2018-08-22T14:32:49.344Z,30.00
2018-08-22T14:35:17.781Z,30.00
2018-08-22T14:37:46.077Z,30.00
2018-08-22T14:40:14.333Z,29.90
2018-08-22T14:42:42.621Z,29.90
2018-08-22T14:45:10.900Z,30.00
2018-08-22T14:47:39.180Z,30.00
2018-08-22T14:50:07.897Z,30.00
2018-08-22T14:52:36.978Z,30.10
2018-08-22T14:55:05.317Z,30.00
2018-08-22T14:57:33.617Z,30.00
2018-08-22T15:00:02.515Z,30.00
2018-08-22T15:02:30.823Z,30.10
2018-08-22T15:04:59.117Z,30.20
2018-08-22T15:07:27.401Z,30.20
2018-08-22T15:09:55.688Z,30.40
2018-08-22T15:12:23.953Z,30.40
2018-08-22T15:14:52.226Z,30.30
2018-08-22T15:17:20.528Z,30.30
2018-08-22T15:19:48.808Z,30.30
2018-08-22T15:22:17.098Z,30.20
2018-08-22T15:24:45.373Z,30.30
2018-08-22T15:27:13.674Z,30.20
2018-08-22T15:29:41.981Z,30.30
2018-08-22T15:32:10.258Z,30.20
2018-08-22T15:34:51.496Z,30.20
2018-08-22T15:37:20.173Z,30.20
2018-08-22T15:39:48.596Z,30.10
2018-08-22T15:42:16.885Z,30.10
2018-08-22T15:44:45.161Z,30.10
2018-08-22T15:47:14.151Z,30.10
2018-08-22T15:49:42.802Z,30.20
2018-08-22T15:52:11.080Z,30.30
2018-08-22T15:54:39.368Z,30.20
2018-08-22T15:57:07.652Z,30.20
2018-08-22T15:59:35.933Z,30.20
2018-08-22T16:02:04.216Z,30.20
2018-08-22T16:04:47.644Z,30.40
2018-08-22T16:07:16.829Z,30.40
2018-08-22T16:09:45.093Z,30.30
2018-08-22T16:12:13.378Z,30.50
2018-08-22T16:14:41.770Z,30.50
2018-08-22T16:17:09.960Z,30.40
2018-08-22T16:19:38.237Z,30.40
2018-08-22T16:22:07.353Z,30.40
2018-08-22T16:24:36.002Z,30.50
2018-08-22T16:27:04.303Z,30.50
2018-08-22T16:29:32.633Z,30.50
2018-08-22T16:32:00.908Z,30.30
2018-08-22T16:34:29.187Z,30.30
2018-08-22T16:36:57.460Z,30.30
2018-08-22T16:39:37.954Z,30.30
2018-08-22T16:42:07.132Z,30.20
2018-08-22T16:44:35.401Z,30.20
2018-08-22T16:47:03.693Z,30.10
2018-08-22T16:49:32.073Z,30.00
2018-08-22T16:52:00.305Z,29.80
2018-08-22T16:54:28.610Z,29.70
2018-08-22T16:56:56.881Z,29.80
2018-08-22T16:59:25.159Z,29.80
2018-08-22T17:01:53.469Z,29.70
2018-08-22T17:04:21.712Z,29.70
2018-08-22T17:06:50.093Z,29.70
2018-08-22T17:09:18.461Z,29.80
2018-08-22T17:11:46.859Z,29.80
2018-08-22T17:14:15.134Z,29.90
2018-08-22T17:16:43.408Z,30.60
2018-08-22T17:19:11.802Z,31.40
2018-08-22T17:21:40.093Z,31.70
2018-08-22T17:24:08.388Z,32.30
2018-08-22T17:26:36.868Z,32.40
2018-08-22T17:29:05.164Z,32.50
2018-08-22T17:31:39.921Z,32.30
2018-08-22T17:34:08.284Z,32.40
2018-08-22T17:36:36.575Z,32.50
2018-08-22T17:39:06.483Z,32.30
2018-08-22T17:41:34.758Z,32.20
2018-08-22T17:44:11.640Z,32.10
2018-08-22T17:46:42.293Z,31.90
2018-08-22T17:49:10.581Z,31.60
2018-08-22T17:52:05.169Z,31.20
2018-08-22T17:54:33.614Z,31.00
2018-08-22T17:57:13.772Z,30.60
2018-08-22T17:59:42.942Z,30.20
2018-08-22T18:02:11.608Z,29.90
2018-08-22T18:04:52.383Z,29.60
2018-08-22T18:07:21.432Z,29.30
2018-08-22T18:09:50.309Z,29.00
2018-08-22T18:12:19.312Z,28.80
2018-08-22T18:14:47.745Z,28.60
2018-08-22T18:17:18.631Z,28.40
2018-08-22T18:19:47.022Z,28.20
2018-08-22T18:22:15.329Z,28.00
2018-08-22T18:24:49.207Z,27.80
2018-08-22T18:27:17.523Z,27.60
2018-08-22T18:29:46.978Z,27.40
2018-08-22T18:32:15.960Z,27.20
2018-08-22T18:34:56.587Z,27.10
2018-08-22T18:37:25.729Z,27.10
2018-08-22T18:40:05.447Z,26.90
2018-08-22T18:42:33.718Z,26.80
2018-08-22T18:45:02.019Z,26.70
2018-08-22T18:47:31.553Z,26.60
2018-08-22T18:49:59.865Z,26.50
2018-08-22T18:52:28.134Z,26.40
2018-08-22T18:54:56.451Z,26.30
2018-08-22T18:57:24.724Z,26.20
2018-08-22T18:59:53.177Z,26.10
2018-08-22T19:02:21.452Z,25.90
2018-08-22T19:04:49.736Z,25.90
2018-08-22T19:07:18.161Z,25.80
2018-08-22T19:09:46.458Z,25.70
2018-08-22T19:12:14.818Z,25.60
2018-08-22T19:14:46.665Z,25.50
2018-08-22T19:17:17.112Z,25.50
2018-08-22T19:19:46.718Z,25.50
2018-08-22T19:22:16.502Z,25.40
2018-08-22T19:25:04.280Z,25.30
2018-08-22T19:27:34.051Z,25.20
2018-08-22T19:30:04.514Z,25.00
2018-08-22T19:32:32.789Z,24.90
2018-08-22T19:35:01.064Z,24.90
2018-08-22T19:37:29.324Z,24.80
2018-08-22T19:40:07.824Z,24.70
2018-08-22T19:42:37.537Z,24.70
2018-08-22T19:45:08.464Z,24.70
2018-08-22T19:47:38.193Z,24.60
2018-08-22T19:50:07.377Z,24.50
2018-08-22T19:52:35.662Z,24.40
2018-08-22T19:55:06.695Z,24.30
2018-08-22T19:57:36.504Z,24.30
2018-08-22T20:00:06.811Z,24.20
2018-08-22T20:02:35.869Z,24.20
2018-08-22T20:05:04.410Z,24.20
2018-08-22T20:07:32.691Z,24.10
2018-08-22T20:10:00.977Z,24.10
2018-08-22T20:12:40.243Z,24.00
2018-08-22T20:15:08.604Z,24.10
2018-08-22T20:17:36.905Z,24.00
2018-08-22T20:20:05.779Z,24.00
2018-08-22T20:22:39.430Z,24.00
2018-08-22T20:25:08.074Z,23.90
2018-08-22T20:27:36.460Z,23.80
2018-08-22T20:30:10.473Z,23.70
2018-08-22T20:32:43.222Z,23.60
2018-08-22T20:35:11.526Z,23.50
2018-08-22T20:37:39.818Z,23.40
2018-08-22T20:42:42.825Z,23.20
2018-08-22T20:45:14.385Z,23.20
2018-08-22T20:47:42.686Z,23.20
2018-08-22T20:50:11.022Z,23.10
2018-08-22T20:52:39.313Z,23.00
2018-08-22T20:55:08.386Z,22.90
2018-08-22T20:57:36.985Z,22.80
2018-08-22T21:00:05.953Z,22.80
2018-08-22T21:02:34.231Z,22.70
2018-08-22T21:05:02.617Z,22.70
2018-08-22T21:07:36.080Z,22.70
2018-08-22T21:10:04.389Z,22.60
2018-08-22T21:12:32.729Z,22.50
2018-08-22T21:15:01.024Z,22.50
2018-08-22T21:17:29.805Z,22.40
2018-08-22T21:19:58.128Z,22.30
2018-08-22T21:22:29.934Z,22.30
2018-08-22T21:24:59.813Z,22.20
2018-08-22T21:27:28.056Z,22.20
2018-08-22T21:29:56.325Z,22.20
2018-08-22T21:32:24.605Z,22.20
2018-08-22T21:34:52.905Z,22.10
2018-08-22T21:37:28.525Z,22.10
2018-08-22T21:39:56.914Z,22.10
2018-08-22T21:42:31.922Z,22.00
2018-08-22T21:45:00.213Z,22.00
2018-08-22T21:47:28.505Z,21.90
2018-08-22T21:49:56.796Z,21.80
2018-08-22T21:52:25.142Z,21.80
2018-08-22T21:54:53.449Z,21.70
2018-08-22T21:57:21.686Z,21.70
2018-08-22T21:59:55.917Z,21.70
2018-08-22T22:02:24.209Z,21.70
2018-08-22T22:04:52.501Z,21.50
2018-08-22T22:07:20.774Z,21.40
2018-08-22T22:09:51.455Z,21.40
2018-08-22T22:12:39.193Z,21.40
2018-08-22T22:15:07.861Z,21.30
2018-08-22T22:17:36.137Z,21.30
2018-08-22T22:20:04.451Z,21.30
2018-08-22T22:22:32.733Z,21.20
2018-08-22T22:25:02.848Z,21.20
2018-08-22T22:27:32.059Z,21.30
2018-08-22T22:30:02.078Z,21.20
2018-08-22T22:32:30.720Z,21.20
2018-08-22T22:34:59.000Z,21.20
2018-08-22T22:37:27.416Z,21.00
2018-08-22T22:39:55.718Z,20.90
2018-08-22T22:42:26.088Z,20.80
2018-08-22T22:44:55.334Z,20.70
2018-08-22T22:47:26.507Z,20.70
2018-08-22T22:49:55.109Z,20.70
2018-08-22T22:52:39.562Z,20.80
2018-08-22T22:55:08.865Z,20.80
2018-08-22T22:57:38.291Z,20.70
2018-08-22T23:00:08.290Z,20.70
2018-08-22T23:02:36.570Z,20.70
2018-08-22T23:05:04.916Z,20.70
2018-08-22T23:07:34.256Z,20.70
2018-08-22T23:10:06.733Z,20.70
2018-08-22T23:12:37.929Z,20.70
2018-08-22T23:15:08.496Z,20.70
2018-08-22T23:17:36.836Z,20.60
2018-08-22T23:20:14.958Z,20.60
2018-08-22T23:22:43.208Z,20.50
2018-08-22T23:25:11.827Z,20.50
2018-08-22T23:27:40.508Z,20.50
2018-08-22T23:30:08.913Z,20.50
2018-08-22T23:32:37.889Z,20.40
2018-08-22T23:35:19.430Z,20.40
2018-08-22T23:37:55.391Z,20.40
2018-08-22T23:40:24.837Z,20.30
2018-08-22T23:42:53.508Z,20.30
2018-08-22T23:45:21.825Z,20.30
2018-08-22T23:47:50.194Z,20.30
2018-08-22T23:50:18.464Z,20.20
2018-08-22T23:52:57.313Z,20.10
2018-08-22T23:55:26.163Z,20.00
2018-08-22T23:57:55.681Z,19.90
